createdAt,value
2018-12-10T00:01:59.402Z,100169.69
2018-12-10T00:06:55.545Z,100165.45
2018-12-10T00:11:51.555Z,100170.01
2018-12-10T00:16:47.565Z,100174.73
2018-12-10T00:21:43.578Z,100180.13
2018-12-10T00:26:39.649Z,100197.08
2018-12-10T00:31:37.158Z,100186.47
2018-12-10T00:36:33.257Z,100203.58
2018-12-10T00:41:29.391Z,100203.09
2018-12-10T00:46:25.549Z,100215.67
2018-12-10T00:51:21.565Z,100215.55
2018-12-10T00:56:17.578Z,100218.67
2018-12-10T01:01:13.738Z,100226.15
2018-12-10T01:06:09.762Z,100244.72
2018-12-10T01:11:05.774Z,100242.89
2018-12-10T01:16:01.790Z,100250.89
2018-12-10T01:20:57.841Z,100249.39
2018-12-10T01:25:53.978Z,100263.91
2018-12-10T01:30:50.001Z,100270.45
2018-12-10T01:35:46.027Z,100273.41
2018-12-10T01:40:42.066Z,100282.19
2018-12-10T01:45:38.082Z,100299.67
2018-12-10T01:50:34.196Z,100310.80
2018-12-10T01:55:30.225Z,100305.59
2018-12-10T02:00:26.273Z,100317.33
2018-12-10T02:05:22.305Z,100323.55
2018-12-10T02:10:18.474Z,100323.72
2018-12-10T02:15:14.485Z,100326.16
2018-12-10T02:20:10.546Z,100337.05
2018-12-10T02:25:06.558Z,100335.75
2018-12-10T02:30:03.104Z,100333.98
2018-12-10T02:34:59.126Z,100346.52
2018-12-10T02:39:55.152Z,100344.70
2018-12-10T02:44:51.173Z,100357.59
2018-12-10T02:49:47.293Z,100359.87
2018-12-10T02:54:43.299Z,100359.20
2018-12-10T02:59:39.306Z,100368.32
2018-12-10T03:04:35.343Z,100374.05
2018-12-10T03:09:31.372Z,100365.90
2018-12-10T03:14:27.407Z,100379.28
2018-12-10T03:19:23.553Z,100381.72
2018-12-10T03:24:19.582Z,100391.34
2018-12-10T03:29:15.610Z,100393.45
2018-12-10T03:34:11.621Z,100404.55
2018-12-10T03:39:07.703Z,100410.39
2018-12-10T03:44:04.209Z,100414.13
2018-12-10T03:49:00.234Z,100425.70
2018-12-10T03:53:56.253Z,100433.05
2018-12-10T03:58:52.275Z,100433.68
2018-12-10T04:03:48.315Z,100431.08
2018-12-10T04:08:44.393Z,100436.13
2018-12-10T04:13:40.503Z,100436.78
2018-12-10T04:18:36.545Z,100448.52
2018-12-10T04:23:32.559Z,100464.79
2018-12-10T04:28:28.556Z,100455.53
2018-12-10T04:33:24.565Z,100480.76
2018-12-10T04:38:20.602Z,100471.47
2018-12-10T04:43:16.613Z,100472.77
2018-12-10T04:48:12.639Z,100476.04
2018-12-10T04:53:08.660Z,100472.92
2018-12-10T04:58:04.668Z,100483.00
2018-12-10T05:03:00.690Z,100491.48
2018-12-10T05:07:56.705Z,100498.96
2018-12-10T05:12:52.713Z,100506.42
2018-12-10T05:17:48.721Z,100509.38
2018-12-10T05:22:44.742Z,100523.06
2018-12-10T05:27:40.761Z,100523.66
2018-12-10T05:32:37.725Z,100523.21
2018-12-10T05:37:33.738Z,100524.34
2018-12-10T05:42:29.748Z,100532.95
2018-12-10T05:47:25.790Z,100533.13
2018-12-10T05:52:21.798Z,100531.98
2018-12-10T05:57:17.822Z,100547.80
2018-12-10T06:02:16.774Z,100556.89
2018-12-10T06:07:12.825Z,100563.39
2018-12-10T06:12:08.847Z,100559.94
2018-12-10T06:17:04.875Z,100561.38
2018-12-10T06:22:00.917Z,100567.42
2018-12-10T06:26:57.061Z,100581.75
2018-12-10T06:31:57.791Z,100582.55
2018-12-10T06:36:55.998Z,100581.75
2018-12-10T06:41:52.034Z,100582.52
2018-12-10T06:46:48.085Z,100592.24
2018-12-10T06:51:44.146Z,100605.23
2018-12-10T06:56:40.198Z,100604.60
2018-12-10T07:01:40.141Z,100607.98
2018-12-10T07:06:36.285Z,100623.45
2018-12-10T07:11:32.369Z,100625.11
2018-12-10T07:16:28.437Z,100623.81
2018-12-10T07:21:24.483Z,100634.55
2018-12-10T07:26:20.552Z,100639.77
2018-12-10T07:31:16.630Z,100643.34
2018-12-10T07:36:12.711Z,100650.45
2018-12-10T07:41:08.781Z,100659.22
2018-12-10T07:46:04.862Z,100675.16
2018-12-10T07:51:00.951Z,100680.73
2018-12-10T07:55:57.010Z,100676.54
2018-12-10T08:00:53.062Z,100677.73
2018-12-10T08:05:49.087Z,100688.00
2018-12-10T08:10:45.238Z,100682.14
2018-12-10T08:15:41.330Z,100692.61
2018-12-10T08:20:37.390Z,100696.69
2018-12-10T08:25:33.434Z,100709.20
2018-12-10T08:30:29.491Z,100721.26
2018-12-10T08:35:25.650Z,100711.83
2018-12-10T08:40:21.758Z,100716.75
2018-12-10T08:45:17.882Z,100703.77
2018-12-10T08:50:13.955Z,100715.34
2018-12-10T08:55:10.028Z,100720.48
2018-12-10T09:00:07.108Z,100716.63
2018-12-10T09:05:03.715Z,100723.25
2018-12-10T09:09:59.757Z,100720.48
2018-12-10T09:14:55.811Z,100719.00
2018-12-10T09:19:51.897Z,100722.14
2018-12-10T09:24:47.958Z,100736.56
2018-12-10T09:29:44.150Z,100740.34
2018-12-10T09:34:40.615Z,100754.00
2018-12-10T09:39:36.692Z,100756.80
2018-12-10T09:44:32.757Z,100735.78
2018-12-10T09:49:28.804Z,100749.58
2018-12-10T09:54:24.998Z,100750.86
2018-12-10T09:59:21.073Z,100754.47
2018-12-10T10:04:17.149Z,100764.91
2018-12-10T10:09:13.169Z,100757.81
2018-12-10T10:14:09.221Z,100754.20
2018-12-10T10:19:05.534Z,100748.33
2018-12-10T10:24:01.623Z,100755.73
2018-12-10T10:28:59.613Z,100748.22
2018-12-10T10:33:55.767Z,100764.98
2018-12-10T10:38:51.830Z,100768.08
2018-12-10T10:43:47.920Z,100777.64
2018-12-10T10:48:43.994Z,100763.39
2018-12-10T10:53:40.187Z,100751.41
2018-12-10T10:58:43.200Z,100742.93
2018-12-10T11:03:39.261Z,100750.42
2018-12-10T11:08:35.333Z,100738.86
2018-12-10T11:13:31.430Z,100746.23
2018-12-10T11:18:27.589Z,100743.67
2018-12-10T11:23:23.666Z,100743.86
2018-12-10T11:28:19.708Z,100734.25
2018-12-10T11:33:15.785Z,100733.93
2018-12-10T11:38:11.862Z,100735.23
2018-12-10T11:43:08.321Z,100734.91
2018-12-10T11:48:04.646Z,100734.27
2018-12-10T11:53:00.964Z,100719.91
2018-12-10T11:57:57.017Z,100716.30
2018-12-10T12:02:53.574Z,100707.15
2018-12-10T12:07:49.658Z,100707.66
2018-12-10T12:12:45.733Z,100716.96
2018-12-10T12:17:41.940Z,100714.34
2018-12-10T12:22:38.005Z,100697.38
2018-12-10T12:27:34.292Z,100701.29
2018-12-10T12:32:31.164Z,100700.48
2018-12-10T12:37:27.245Z,100699.98
2018-12-10T12:42:23.312Z,100692.95
2018-12-10T12:47:20.808Z,100677.27
2018-12-10T12:52:19.978Z,100688.85
2018-12-10T12:57:16.571Z,100715.48
2018-12-10T13:02:16.895Z,100749.28
2018-12-10T13:07:13.124Z,100714.34
2018-12-10T13:12:09.434Z,100703.22
2018-12-10T13:17:08.805Z,100693.11
2018-12-10T13:22:05.122Z,100701.77
2018-12-10T13:27:01.199Z,100694.03
2018-12-10T13:32:02.277Z,100697.92
2018-12-10T13:36:58.378Z,100695.05
2018-12-10T13:41:54.606Z,100700.26
2018-12-10T13:46:50.686Z,100699.12
2018-12-10T13:51:46.762Z,100694.08
2018-12-10T13:56:42.850Z,100712.45
2018-12-10T14:01:40.583Z,100716.73
2018-12-10T14:06:36.763Z,100702.70
2018-12-10T14:11:32.863Z,100687.34
2018-12-10T14:16:28.922Z,100713.77
2018-12-10T14:21:24.981Z,100714.84
2018-12-10T14:26:21.029Z,100713.41
2018-12-10T14:31:17.100Z,100714.64
2018-12-10T14:36:13.195Z,100717.22
2018-12-10T14:41:09.367Z,100720.58
2018-12-10T14:46:05.460Z,100715.02
2018-12-10T14:51:01.527Z,100734.74
2018-12-10T14:55:57.615Z,100738.63
2018-12-10T15:00:53.685Z,100748.98
2018-12-10T15:05:49.891Z,100747.80
2018-12-10T15:10:46.017Z,100753.36
2018-12-10T15:15:42.077Z,100775.68
2018-12-10T15:20:38.187Z,100784.41
2018-12-10T15:25:34.259Z,100780.63
2018-12-10T15:30:30.461Z,100776.88
2018-12-10T15:35:26.692Z,100782.61
2018-12-10T15:40:23.469Z,100786.48
2018-12-10T15:45:19.971Z,100783.91
2018-12-10T15:50:16.013Z,100779.70
2018-12-10T15:55:12.206Z,100784.95
2018-12-10T16:00:08.598Z,100790.16
2018-12-10T16:05:04.901Z,100779.24
2018-12-10T16:10:01.014Z,100779.54
2018-12-10T16:14:57.160Z,100782.11
2018-12-10T16:19:53.308Z,100794.81
2018-12-10T16:24:49.454Z,100785.92
2018-12-10T16:29:45.591Z,100784.50
2018-12-10T16:34:41.654Z,100792.44
2018-12-10T16:39:37.765Z,100807.78
2018-12-10T16:44:35.493Z,100807.91
2018-12-10T16:49:31.686Z,100809.56
2018-12-10T16:54:27.721Z,100808.81
2018-12-10T16:59:24.083Z,100817.63
2018-12-10T17:04:20.235Z,100819.73
2018-12-10T17:09:16.451Z,100811.27
2018-12-10T17:14:12.949Z,100808.53
2018-12-10T17:19:10.597Z,100808.41
2018-12-10T17:24:06.665Z,100802.87
2018-12-10T17:29:02.924Z,100812.66
2018-12-10T17:33:59.060Z,100820.81
2018-12-10T17:38:55.232Z,100813.95
2018-12-10T17:43:51.401Z,100821.47
2018-12-10T17:48:47.517Z,100814.30
2018-12-10T17:53:43.990Z,100816.25
2018-12-10T17:58:40.477Z,100822.42
2018-12-10T18:03:36.621Z,100824.34
2018-12-10T18:08:32.653Z,100819.98
2018-12-10T18:13:28.785Z,100827.95
2018-12-10T18:18:24.809Z,100828.28
2018-12-10T18:23:20.831Z,100825.50
2018-12-10T18:28:17.682Z,100829.81
2018-12-10T18:33:13.850Z,100821.34
2018-12-10T18:38:09.866Z,100828.48
2018-12-10T18:43:05.896Z,100828.14
2018-12-10T18:48:01.926Z,100830.77
2018-12-10T18:52:59.870Z,100820.20
2018-12-10T18:57:57.091Z,100818.70
2018-12-10T19:02:53.179Z,100824.91
2018-12-10T19:07:49.243Z,100817.75
2018-12-10T19:12:45.311Z,100826.62
2018-12-10T19:17:41.431Z,100832.11
2018-12-10T19:22:37.561Z,100847.64
2018-12-10T19:27:33.583Z,100841.63
2018-12-10T19:32:30.377Z,100848.33
2018-12-10T19:37:26.519Z,100850.63
2018-12-10T19:42:22.652Z,100856.33
2018-12-10T19:47:19.210Z,100859.93
2018-12-10T19:52:15.580Z,100855.03
2018-12-10T19:57:11.636Z,100850.13
2018-12-10T20:02:09.010Z,100838.00
2018-12-10T20:07:05.712Z,100852.05
2018-12-10T20:12:01.887Z,100855.77
2018-12-10T20:16:58.031Z,100859.46
2018-12-10T20:21:54.063Z,100875.13
2018-12-10T20:26:50.219Z,100871.19
2018-12-10T20:31:46.303Z,100870.08
2018-12-10T20:36:42.492Z,100873.80
2018-12-10T20:41:38.670Z,100864.95
2018-12-10T20:46:34.691Z,100873.34
2018-12-10T20:51:30.804Z,100872.31
2018-12-10T20:56:26.857Z,100869.33
2018-12-10T21:01:22.884Z,100861.86
2018-12-10T21:06:25.022Z,100872.55
2018-12-10T21:11:21.041Z,100868.33
2018-12-10T21:16:17.146Z,100885.86
2018-12-10T21:21:13.221Z,100877.52
2018-12-10T21:26:09.238Z,100876.14
2018-12-10T21:31:05.262Z,100880.01
2018-12-10T21:36:01.289Z,100892.00
2018-12-10T21:40:57.361Z,100886.67
2018-12-10T21:45:53.455Z,100882.61
2018-12-10T21:50:49.529Z,100882.92
2018-12-10T21:55:45.550Z,100897.05
2018-12-10T22:00:41.950Z,100885.48
2018-12-10T22:05:38.198Z,100891.30
2018-12-10T22:10:34.346Z,100896.89
2018-12-10T22:15:30.465Z,100881.58
2018-12-10T22:20:26.507Z,100890.30
2018-12-10T22:25:22.549Z,100892.98
2018-12-10T22:30:18.576Z,100896.08
2018-12-10T22:35:14.604Z,100895.64
2018-12-10T22:40:10.691Z,100911.86
2018-12-10T22:45:06.825Z,100907.52
2018-12-10T22:50:04.796Z,100898.55
2018-12-10T22:55:00.841Z,100902.22
2018-12-10T22:59:57.128Z,100916.22
2018-12-10T23:04:53.218Z,100917.31
2018-12-10T23:09:49.373Z,100913.36
2018-12-10T23:14:45.453Z,100917.02
2018-12-10T23:19:41.545Z,100923.91
2018-12-10T23:24:37.592Z,100928.92
2018-12-10T23:29:33.616Z,100930.47
2018-12-10T23:34:29.642Z,100928.52
2018-12-10T23:39:25.700Z,100942.84
2018-12-10T23:44:27.778Z,100943.09
2018-12-10T23:49:23.802Z,100949.69
2018-12-10T23:54:19.828Z,100944.34
2018-12-10T23:59:15.920Z,100942.70
